Time;durP1;ratioP1;P1;durP2;ratioP2;P2;SDS_P1;SDS_P2;PMS_P1;PMS_P2;Temp;Humidity;BMP_temperature;BMP_pressure;BME280_temperature;BME280_humidity;BME280_pressure;Samples;Min_cycle;Max_cycle;Signal;HPM_P1;HPM_P2
2022/11/20 00:00:02;;;;;;;129.67;54.77;;;-5.60;99.90;;;;;;10478313;28;20036;-78
2022/11/20 00:05:03;;;;;;;126.00;52.67;;;-5.50;99.90;;;;;;10467637;28;20040;-79
2022/11/20 00:10:04;;;;;;;116.40;50.77;;;-5.70;99.90;;;;;;10470527;28;20456;-81
2022/11/20 00:15:05;;;;;;;139.17;58.00;;;-5.70;99.90;;;;;;10462261;28;20111;-79
2022/11/20 00:20:06;;;;;;;143.17;58.60;;;-5.70;99.90;;;;;;10467797;28;20025;-81
2022/11/20 00:25:06;;;;;;;139.47;59.57;;;-5.70;99.90;;;;;;10476386;28;20064;-79
2022/11/20 00:30:08;;;;;;;142.73;62.43;;;-5.60;99.90;;;;;;10468330;28;20082;-81
2022/11/20 00:35:08;;;;;;;124.20;56.53;;;-5.50;99.90;;;;;;10477531;28;20039;-79
2022/11/20 00:40:09;;;;;;;132.50;55.67;;;-5.40;99.90;;;;;;10466618;28;20568;-79
2022/11/20 00:45:10;;;;;;;147.57;61.87;;;-5.50;99.90;;;;;;10481597;28;20044;-79
2022/11/20 00:50:10;;;;;;;137.63;57.20;;;-5.60;99.90;;;;;;10469937;28;20473;-80
2022/11/20 00:55:11;;;;;;;136.87;55.63;;;-5.60;99.90;;;;;;10471678;28;20722;-82
2022/11/20 01:00:12;;;;;;;138.23;54.60;;;-5.60;99.90;;;;;;10471719;28;20032;-81
2022/11/20 01:05:12;;;;;;;125.07;51.50;;;-5.60;99.90;;;;;;10474304;28;20048;-81
2022/11/20 01:10:13;;;;;;;121.23;52.53;;;-5.60;99.90;;;;;;10474797;28;20457;-79
2022/11/20 01:15:13;;;;;;;128.60;53.97;;;-5.60;99.90;;;;;;10482006;28;20089;-80
2022/11/20 01:20:14;;;;;;;134.87;55.87;;;-5.60;99.90;;;;;;10465807;28;20033;-82
2022/11/20 01:25:14;;;;;;;134.03;55.60;;;-5.60;99.90;;;;;;10463560;28;20060;-79
2022/11/20 01:30:15;;;;;;;128.53;51.40;;;-5.60;99.90;;;;;;10462336;28;20121;-79
2022/11/20 01:35:15;;;;;;;135.13;56.40;;;-5.60;99.90;;;;;;10469037;28;20032;-81
2022/11/20 01:40:16;;;;;;;131.60;55.23;;;-5.70;99.90;;;;;;10474719;28;20071;-79
2022/11/20 01:45:52;;;;;;;150.13;64.13;;;-5.70;99.90;;;;;;10460041;28;20385;-79
2022/11/20 01:50:53;;;;;;;;;;;-5.70;99.90;;;;;;10451817;28;20059;-80
2022/11/20 01:55:56;;;;;;;140.73;54.73;;;-5.80;99.90;;;;;;10470089;28;19970;-79
2022/11/20 02:00:56;;;;;;;136.17;57.47;;;-5.80;99.90;;;;;;10468537;28;20028;-79
2022/11/20 02:06:22;;;;;;;148.97;58.50;;;-5.80;99.90;;;;;;10473212;28;20063;-82
2022/11/20 02:11:22;;;;;;;111.57;45.80;;;-5.90;99.90;;;;;;10458656;28;20793;-79
2022/11/20 02:16:29;;;;;;;143.33;55.47;;;-6.00;99.90;;;;;;10460463;28;20036;-79
2022/11/20 02:21:42;;;;;;;138.47;55.10;;;-6.00;99.90;;;;;;10459841;28;20029;-79
2022/11/20 02:26:53;;;;;;;134.90;56.23;;;-6.20;99.90;;;;;;10459964;28;20053;-81
2022/11/20 02:31:55;;;;;;;147.83;60.63;;;-6.30;99.90;;;;;;10460600;28;20037;-79
2022/11/20 02:36:57;;;;;;;117.70;52.53;;;-6.30;99.90;;;;;;10461470;28;20044;-79
2022/11/20 02:42:00;;;;;;;131.93;54.07;;;-6.40;99.90;;;;;;10465926;28;20033;-79
2022/11/20 02:47:01;;;;;;;119.50;50.70;;;-6.50;99.90;;;;;;10467285;28;20056;-79
2022/11/20 02:52:01;;;;;;;121.77;50.70;;;-6.50;99.90;;;;;;10473780;28;20040;-80
2022/11/20 02:57:02;;;;;;;126.60;50.57;;;-6.50;99.90;;;;;;10452776;28;20036;-81
2022/11/20 03:02:02;;;;;;;119.60;52.23;;;-6.50;99.90;;;;;;10463388;28;20546;-78
2022/11/20 03:07:03;;;;;;;122.33;49.57;;;-6.50;99.90;;;;;;10472324;28;20470;-81
2022/11/20 03:12:04;;;;;;;135.30;54.70;;;-6.50;99.90;;;;;;10460195;28;20025;-79
2022/11/20 03:17:05;;;;;;;125.43;50.27;;;-6.50;99.90;;;;;;10468288;28;20503;-81
2022/11/20 03:22:05;;;;;;;115.83;46.90;;;-6.60;99.90;;;;;;10461754;28;20720;-80
2022/11/20 03:27:06;;;;;;;120.27;46.70;;;-6.70;99.90;;;;;;10456564;28;20554;-79
2022/11/20 03:32:07;;;;;;;115.07;46.80;;;-6.90;99.90;;;;;;10466908;28;20040;-79
2022/11/20 03:37:08;;;;;;;126.27;50.97;;;-6.90;99.90;;;;;;10474927;28;20071;-79
2022/11/20 03:42:44;;;;;;;122.87;50.17;;;-6.90;99.90;;;;;;10459974;28;20190;-82
2022/11/20 03:47:29;;;;;;;125.20;50.57;;;-6.90;99.90;;;;;;10463902;28;20057;-79
2022/11/20 03:52:29;;;;;;;137.77;58.83;;;-6.90;99.90;;;;;;10469963;28;20025;-79
2022/11/20 03:57:30;;;;;;;151.97;58.60;;;-6.80;99.90;;;;;;10468167;28;20060;-81
2022/11/20 04:02:31;;;;;;;145.20;55.80;;;-6.70;99.90;;;;;;10466804;28;20059;-79
2022/11/20 04:07:33;;;;;;;122.40;53.17;;;-6.70;99.90;;;;;;10458678;28;20037;-79
2022/11/20 04:12:34;;;;;;;125.43;51.57;;;-6.60;99.90;;;;;;10469082;28;20412;-79
2022/11/20 04:17:35;;;;;;;125.67;54.80;;;-6.60;99.90;;;;;;10464091;28;20036;-79
2022/11/20 04:22:35;;;;;;;119.53;50.90;;;-6.60;99.90;;;;;;10461129;28;20033;-79
2022/11/20 04:27:36;;;;;;;107.57;45.20;;;-6.60;99.90;;;;;;10446380;28;20124;-79
2022/11/20 04:32:36;;;;;;;124.27;50.13;;;-6.60;99.90;;;;;;10458480;28;20044;-79
2022/11/20 04:37:37;;;;;;;118.27;47.00;;;-6.60;99.90;;;;;;10470892;28;20032;-79
2022/11/20 04:42:37;;;;;;;113.43;47.87;;;-6.70;99.90;;;;;;10471061;28;20028;-79
2022/11/20 04:47:38;;;;;;;113.80;46.53;;;-6.60;99.90;;;;;;10469576;28;20052;-79
2022/11/20 04:52:38;;;;;;;106.90;43.83;;;-6.60;99.90;;;;;;10484808;28;20098;-82
2022/11/20 04:57:39;;;;;;;122.03;46.30;;;-6.60;99.90;;;;;;10490037;28;20506;-80
2022/11/20 05:02:39;;;;;;;119.27;48.20;;;-6.60;99.90;;;;;;10471686;28;20032;-80
2022/11/20 05:07:40;;;;;;;112.13;47.53;;;-6.60;99.90;;;;;;10472159;28;20481;-80
2022/11/20 05:12:40;;;;;;;115.80;45.73;;;-6.70;99.90;;;;;;10471476;28;20036;-81
2022/11/20 05:17:46;;;;;;;121.33;48.63;;;-6.70;99.90;;;;;;10446014;28;20087;-80
2022/11/20 05:22:46;;;;;;;119.82;51.33;;;-6.60;99.90;;;;;;10469692;28;20532;-79
2022/11/20 05:27:47;;;;;;;122.37;49.53;;;-6.70;99.90;;;;;;10462712;28;20033;-81
2022/11/20 05:32:47;;;;;;;120.63;47.03;;;-6.70;99.90;;;;;;10460110;28;20024;-82
2022/11/20 05:37:48;;;;;;;112.47;47.03;;;-6.60;99.90;;;;;;10466064;28;20024;-78
2022/11/20 05:42:48;;;;;;;111.70;47.20;;;-6.60;99.90;;;;;;10455662;28;20540;-80
2022/11/20 05:47:49;;;;;;;115.33;45.57;;;-6.60;99.90;;;;;;10455870;28;20047;-79
2022/11/20 05:52:49;;;;;;;116.33;47.77;;;-6.60;99.90;;;;;;10461525;28;20677;-80
2022/11/20 05:57:51;;;;;;;114.43;48.07;;;-6.70;99.90;;;;;;10482800;28;20056;-79
2022/11/20 06:02:52;;;;;;;107.00;44.93;;;-6.80;99.90;;;;;;10454521;28;20028;-81
2022/11/20 06:07:52;;;;;;;121.43;48.90;;;-6.90;99.90;;;;;;10455284;28;20523;-80
2022/11/20 06:12:53;;;;;;;118.17;48.67;;;-6.80;99.90;;;;;;10475281;28;20025;-79
2022/11/20 06:17:54;;;;;;;115.77;48.50;;;-6.80;99.90;;;;;;10447344;28;20078;-79
2022/11/20 06:22:55;;;;;;;111.93;47.30;;;-6.80;99.90;;;;;;10447482;28;20626;-80
2022/11/20 06:27:55;;;;;;;104.37;47.13;;;-6.80;99.90;;;;;;10465821;28;20032;-79
2022/11/20 06:32:56;;;;;;;123.00;50.03;;;-6.80;99.90;;;;;;10464332;28;20032;-79
2022/11/20 06:37:57;;;;;;;110.43;47.83;;;-6.70;99.90;;;;;;10464534;28;20094;-79
2022/11/20 06:42:57;;;;;;;112.27;45.37;;;-6.80;99.90;;;;;;10452881;28;20167;-81
2022/11/20 06:47:58;;;;;;;114.93;50.73;;;-6.80;99.90;;;;;;10445622;28;20041;-79
2022/11/20 06:53:03;;;;;;;155.27;63.40;;;-6.80;99.90;;;;;;10445745;28;20040;-79
2022/11/20 06:58:03;;;;;;;403.57;142.20;;;-6.80;99.90;;;;;;10467588;28;20163;-80
2022/11/20 07:03:04;;;;;;;135.30;60.17;;;-6.70;99.90;;;;;;10454563;28;20720;-80
2022/11/20 07:08:05;;;;;;;115.53;51.70;;;-6.50;99.90;;;;;;10443896;28;20045;-79
2022/11/20 07:13:06;;;;;;;117.20;51.63;;;-6.40;99.90;;;;;;10456917;28;20040;-80
2022/11/20 07:18:07;;;;;;;114.90;49.07;;;-6.20;99.90;;;;;;10461741;28;20147;-78
2022/11/20 07:23:07;;;;;;;137.00;59.83;;;-6.10;99.90;;;;;;10452380;28;20020;-80
2022/11/20 07:28:10;;;;;;;137.33;61.57;;;-5.90;99.90;;;;;;10474270;28;20044;-79
2022/11/20 07:33:11;;;;;;;128.73;56.77;;;-5.60;99.90;;;;;;10483895;28;20024;-79
2022/11/20 07:38:11;;;;;;;130.37;57.33;;;-5.30;99.90;;;;;;10474087;28;20039;-80
2022/11/20 07:43:12;;;;;;;152.83;64.57;;;-5.10;99.90;;;;;;10473015;28;20047;-80
2022/11/20 07:48:12;;;;;;;140.23;58.97;;;-4.90;99.90;;;;;;10453505;28;20071;-78
2022/11/20 07:53:13;;;;;;;145.73;67.23;;;-4.80;99.90;;;;;;10458533;28;20472;-78
2022/11/20 07:58:14;;;;;;;173.13;79.50;;;-4.60;99.90;;;;;;10469995;28;20078;-79
2022/11/20 08:03:14;;;;;;;171.77;74.53;;;-4.30;99.90;;;;;;10475186;28;20021;-79
2022/11/20 08:08:15;;;;;;;172.50;78.70;;;-3.90;99.90;;;;;;10464395;28;20037;-79
2022/11/20 08:18:34;;;;;;;318.13;124.13;;;-3.50;99.90;;;;;;10484921;28;20115;-80
2022/11/20 08:23:35;;;;;;;217.70;92.70;;;-3.40;99.90;;;;;;10479188;28;20574;-80
2022/11/20 08:28:36;;;;;;;308.63;105.17;;;-3.20;99.90;;;;;;10490532;28;20036;-79
2022/11/20 08:33:36;;;;;;;264.43;104.67;;;-3.10;99.90;;;;;;10490440;28;20028;-78
2022/11/20 08:38:37;;;;;;;181.53;78.20;;;-2.90;99.90;;;;;;10490590;28;20035;-79
2022/11/20 08:43:37;;;;;;;295.40;121.57;;;-2.80;99.90;;;;;;10489717;28;20055;-79
2022/11/20 08:48:38;;;;;;;319.13;131.23;;;-2.60;99.90;;;;;;10489775;28;20040;-78
2022/11/20 08:53:39;;;;;;;173.43;82.13;;;-2.20;99.90;;;;;;10475418;28;20039;-79
2022/11/20 08:58:40;;;;;;;153.03;78.07;;;-1.80;99.90;;;;;;10490193;28;20033;-79
2022/11/20 09:03:41;;;;;;;161.17;81.70;;;-1.50;99.90;;;;;;10489278;28;20029;-79
2022/11/20 09:08:42;;;;;;;151.47;72.60;;;-1.30;99.90;;;;;;10489076;28;20049;-79
2022/11/20 09:13:42;;;;;;;157.43;73.03;;;-1.10;99.90;;;;;;10489033;28;20060;-79
2022/11/20 09:18:43;;;;;;;148.17;73.67;;;-0.80;99.90;;;;;;10485946;28;20116;-80
2022/11/20 09:23:43;;;;;;;163.73;79.50;;;-0.70;99.90;;;;;;10477844;28;20039;-79
2022/11/20 09:28:44;;;;;;;191.50;89.23;;;-0.80;99.90;;;;;;10487870;28;20041;-78
2022/11/20 09:33:45;;;;;;;190.00;101.27;;;-0.90;99.90;;;;;;10487643;28;20744;-80
2022/11/20 09:38:46;;;;;;;171.77;83.97;;;-0.80;99.90;;;;;;10488037;28;20401;-79
2022/11/20 09:43:59;;;;;;;179.37;94.20;;;-0.80;99.90;;;;;;10487326;28;20714;-79
2022/11/20 09:49:12;;;;;;;178.43;92.53;;;-0.90;99.90;;;;;;10460798;28;20190;-79
2022/11/20 09:54:22;;;;;;;163.67;86.67;;;-0.80;99.90;;;;;;10468428;28;20033;-79
2022/11/20 09:59:23;;;;;;;184.57;94.27;;;-0.70;99.90;;;;;;10457646;28;20033;-80
2022/11/20 10:04:24;;;;;;;160.57;79.10;;;-0.60;99.90;;;;;;10485839;28;20029;-80
2022/11/20 10:09:35;;;;;;;211.97;104.60;;;-0.40;99.90;;;;;;10486880;28;20151;-79
2022/11/20 10:15:12;;;;;;;179.43;93.00;;;-0.30;99.90;;;;;;10485487;28;20116;-79
2022/11/20 10:20:37;;;;;;;195.10;100.23;;;-0.20;99.90;;;;;;10463353;28;20464;-80
2022/11/20 10:25:43;;;;;;;139.77;73.03;;;0.00;99.90;;;;;;10477293;28;20086;-79
2022/11/20 10:30:45;;;;;;;;;;;0.10;99.90;;;;;;10472205;28;20046;-80
2022/11/20 10:36:06;;;;;;;143.53;74.33;;;0.30;99.90;;;;;;10485466;28;19915;-80
2022/11/20 10:41:27;;;;;;;145.27;75.57;;;0.30;99.90;;;;;;10486206;28;20024;-80
2022/11/20 10:46:37;;;;;;;134.97;68.60;;;0.40;99.90;;;;;;10484570;28;20102;-79
2022/11/20 10:51:51;;;;;;;151.10;78.57;;;0.40;99.90;;;;;;10484832;28;20037;-79
2022/11/20 10:56:56;;;;;;;123.07;62.67;;;0.50;99.90;;;;;;10484396;28;20741;-81
2022/11/20 11:01:57;;;;;;;102.70;49.33;;;0.60;99.90;;;;;;10484475;28;20052;-80
2022/11/20 11:07:26;;;;;;;154.57;83.97;;;0.70;99.90;;;;;;10470378;28;20506;-79
2022/11/20 11:12:28;;;;;;;248.37;125.23;;;0.80;99.90;;;;;;10454471;28;20041;-79
2022/11/20 11:17:31;;;;;;;256.23;143.53;;;0.80;99.90;;;;;;10483815;28;20028;-79
2022/11/20 11:22:42;;;;;;;119.37;59.67;;;0.90;99.90;;;;;;10469971;28;20033;-78
2022/11/20 11:27:47;;;;;;;113.13;57.57;;;1.00;99.90;;;;;;10483748;28;20068;-80
2022/11/20 11:32:48;;;;;;;126.05;67.78;;;1.10;99.90;;;;;;10483835;28;20495;-81
2022/11/20 11:37:50;;;;;;;119.97;65.00;;;1.10;99.90;;;;;;10483330;28;20032;-79
2022/11/20 11:42:56;;;;;;;108.13;58.87;;;1.10;99.90;;;;;;10483607;28;20059;-79
2022/11/20 11:48:00;;;;;;;103.10;53.00;;;1.40;99.90;;;;;;10465694;28;20043;-80
2022/11/20 11:53:14;;;;;;;119.53;56.57;;;1.50;99.90;;;;;;10475090;28;20024;-79
2022/11/20 11:58:46;;;;;;;95.93;46.50;;;1.50;99.90;;;;;;10480199;28;20091;-78
2022/11/20 12:04:19;;;;;;;131.47;69.10;;;1.70;99.90;;;;;;10453159;28;20146;-77
2022/11/20 12:09:27;;;;;;;107.67;54.27;;;1.70;99.90;;;;;;10455299;28;20041;-79
2022/11/20 12:14:35;;;;;;;115.80;58.47;;;1.70;99.90;;;;;;10459491;28;20027;-78
2022/11/20 12:19:35;;;;;;;114.00;53.27;;;1.50;99.90;;;;;;10464661;28;20025;-77
2022/11/20 12:25:00;;;;;;;154.30;91.53;;;1.40;99.90;;;;;;10465724;28;20036;-78
2022/11/20 12:30:08;;;;;;;197.60;99.53;;;1.20;99.90;;;;;;10466285;28;20096;-78
2022/11/20 12:35:21;;;;;;;160.93;79.70;;;1.10;99.90;;;;;;10486965;28;20055;-78
2022/11/20 12:40:50;;;;;;;113.33;57.63;;;1.10;99.90;;;;;;10467768;28;20038;-77
2022/11/20 12:46:12;;;;;;;107.43;56.93;;;1.10;99.90;;;;;;10466214;28;20079;-78
2022/11/20 12:51:47;;;;;;;102.77;48.80;;;1.30;99.90;;;;;;10450656;28;20032;-79
2022/11/20 12:57:03;;;;;;;95.07;45.47;;;1.50;99.90;;;;;;10467906;28;20470;-79
2022/11/20 13:02:30;;;;;;;93.30;46.85;;;1.60;99.90;;;;;;10441929;28;20028;-77
2022/11/20 13:07:32;;;;;;;184.13;80.83;;;1.70;99.90;;;;;;10461973;28;20069;-79
2022/11/20 13:12:40;;;;;;;98.70;48.70;;;1.80;99.90;;;;;;10458308;28;20025;-78
2022/11/20 13:17:47;;;;;;;90.57;45.00;;;1.90;99.90;;;;;;10458299;28;20029;-79
2022/11/20 13:22:54;;;;;;;106.80;56.57;;;1.90;99.90;;;;;;10450817;28;20542;-78
2022/11/20 13:27:57;;;;;;;104.83;54.03;;;1.90;99.90;;;;;;10474505;28;20064;-78
2022/11/20 13:33:09;;;;;;;134.53;74.67;;;1.90;99.90;;;;;;10452599;28;20028;-78
2022/11/20 13:38:12;;;;;;;211.50;110.80;;;1.70;99.90;;;;;;10483187;28;20032;-78
2022/11/20 13:43:35;;;;;;;94.60;47.57;;;1.60;99.90;;;;;;10484327;28;20198;-80
2022/11/20 13:48:41;;;;;;;94.40;45.07;;;1.50;99.90;;;;;;10462695;28;20598;-78
2022/11/20 13:54:00;;;;;;;;;;;1.40;99.90;;;;;;10451368;28;20484;-81
2022/11/20 13:59:58;;;;;;;91.13;43.83;;;1.20;99.90;;;;;;10463875;28;19912;-79
2022/11/20 14:05:01;;;;;;;145.07;63.17;;;0.90;99.90;;;;;;10257471;28;20582;-78
2022/11/20 14:10:02;;;;;;;108.03;53.10;;;0.70;99.90;;;;;;10409954;28;20084;-78
2022/11/20 14:15:03;;;;;;;206.10;104.30;;;0.50;99.90;;;;;;10467334;28;20028;-78
2022/11/20 14:20:14;;;;;;;273.03;133.33;;;0.30;99.90;;;;;;10450544;28;20037;-80
2022/11/20 14:25:15;;;;;;;336.40;164.60;;;0.20;99.90;;;;;;10458639;28;20452;-79
2022/11/20 14:30:21;;;;;;;171.40;83.67;;;0.20;99.90;;;;;;10454013;28;20055;-78
2022/11/20 14:35:28;;;;;;;178.40;84.20;;;0.10;99.90;;;;;;10441805;28;20039;-77
2022/11/20 14:40:37;;;;;;;191.23;103.47;;;0.10;99.90;;;;;;10444785;28;20028;-78
2022/11/20 14:45:38;;;;;;;201.60;103.53;;;0.10;99.90;;;;;;10471570;28;20128;-78
2022/11/20 14:50:39;;;;;;;241.97;115.87;;;0.10;99.90;;;;;;10446342;28;20106;-78
2022/11/20 14:55:40;;;;;;;197.50;102.83;;;0.00;99.90;;;;;;10440872;28;20020;-77
2022/11/20 15:00:41;;;;;;;201.63;106.33;;;0.00;99.90;;;;;;10451325;28;20071;-79
2022/11/20 15:05:47;;;;;;;187.03;104.57;;;0.00;99.90;;;;;;10446026;28;20111;-80
2022/11/20 15:10:52;;;;;;;227.83;111.23;;;0.00;99.90;;;;;;10442490;28;20028;-77
2022/11/20 15:15:58;;;;;;;156.10;79.93;;;-0.10;99.90;;;;;;10447985;28;20025;-78
2022/11/20 15:21:02;;;;;;;169.65;91.75;;;0.00;99.90;;;;;;10439655;28;20028;-78
2022/11/20 15:26:07;;;;;;;184.50;93.37;;;0.00;99.90;;;;;;10445774;28;20037;-80
2022/11/20 15:31:12;;;;;;;138.83;72.30;;;0.00;99.90;;;;;;10447171;28;20365;-78
2022/11/20 15:36:13;;;;;;;181.10;91.60;;;0.00;99.90;;;;;;10443669;28;20036;-77
2022/11/20 15:41:14;;;;;;;141.50;74.23;;;-0.10;99.90;;;;;;10440757;28;20115;-78
2022/11/20 15:46:20;;;;;;;151.93;76.53;;;-0.10;99.90;;;;;;10423822;28;20488;-78
2022/11/20 15:51:28;;;;;;;160.80;82.27;;;-0.10;99.90;;;;;;10439144;28;20511;-77
2022/11/20 15:56:29;;;;;;;166.93;89.43;;;-0.10;99.90;;;;;;10438895;28;20380;-79
2022/11/20 16:01:30;;;;;;;127.97;66.03;;;-0.10;99.90;;;;;;10437934;28;20037;-77
2022/11/20 16:06:31;;;;;;;120.30;61.57;;;0.00;99.90;;;;;;10436772;28;20357;-78
2022/11/20 16:11:31;;;;;;;133.63;69.33;;;0.00;99.90;;;;;;10440441;28;20049;-78
2022/11/20 16:16:35;;;;;;;124.80;67.63;;;0.10;99.90;;;;;;10438463;28;20064;-77
2022/11/20 16:21:37;;;;;;;136.40;68.47;;;0.10;99.90;;;;;;10439559;28;20448;-78
2022/11/20 16:26:38;;;;;;;133.40;67.87;;;0.10;99.90;;;;;;10447547;28;20126;-77
2022/11/20 16:31:39;;;;;;;143.23;71.33;;;0.20;99.90;;;;;;10439119;28;20638;-77
2022/11/20 16:36:41;;;;;;;140.77;67.80;;;0.20;99.90;;;;;;10439996;28;20407;-78
2022/11/20 16:41:41;;;;;;;162.77;80.30;;;0.20;99.90;;;;;;10447942;28;20044;-80
2022/11/20 16:46:42;;;;;;;132.73;69.90;;;0.20;99.90;;;;;;10447153;28;20061;-78
2022/11/20 16:51:43;;;;;;;154.80;82.10;;;0.20;99.90;;;;;;10446850;28;20029;-78
2022/11/20 16:56:46;;;;;;;155.17;78.17;;;0.30;99.90;;;;;;10451938;28;20029;-78
2022/11/20 17:01:47;;;;;;;162.67;86.37;;;0.30;99.90;;;;;;10439433;28;20023;-79
2022/11/20 17:06:47;;;;;;;170.00;83.47;;;0.30;99.90;;;;;;10445822;28;20048;-80
2022/11/20 17:11:48;;;;;;;192.30;89.93;;;0.20;99.90;;;;;;10450876;28;20495;-77
2022/11/20 17:16:49;;;;;;;194.63;90.30;;;0.20;99.90;;;;;;10445581;28;20036;-79
2022/11/20 17:21:49;;;;;;;236.60;105.17;;;0.00;99.90;;;;;;10445403;28;20031;-77
2022/11/20 17:26:50;;;;;;;218.30;100.40;;;-0.10;99.90;;;;;;10446886;28;20067;-77
2022/11/20 17:31:52;;;;;;;205.03;90.80;;;-0.10;99.90;;;;;;10445599;28;20503;-78
2022/11/20 17:36:54;;;;;;;244.07;109.97;;;0.00;99.90;;;;;;10448851;28;20052;-79
2022/11/20 17:47:15;;;;;;;223.50;115.77;;;0.10;99.90;;;;;;10447578;28;20092;-79
2022/11/20 17:52:15;;;;;;;206.47;104.67;;;0.10;99.90;;;;;;10442942;28;20035;-76
2022/11/20 18:02:35;;;;;;;217.03;111.77;;;-0.10;99.90;;;;;;10444256;28;20065;-77
2022/11/20 18:07:37;;;;;;;161.63;86.50;;;-0.20;99.90;;;;;;10441589;28;20561;-77
2022/11/20 18:12:38;;;;;;;180.47;82.37;;;-0.20;99.90;;;;;;10442303;28;20029;-79
2022/11/20 18:17:38;;;;;;;201.47;97.00;;;-0.40;99.90;;;;;;10450275;28;20058;-77
2022/11/20 18:22:39;;;;;;;239.63;119.33;;;-0.40;99.90;;;;;;10433931;28;20025;-78
2022/11/20 18:27:39;;;;;;;276.33;134.97;;;-0.60;99.90;;;;;;10432845;28;20045;-77
2022/11/20 18:32:40;;;;;;;292.23;138.03;;;-0.60;99.90;;;;;;10438841;28;20024;-78
2022/11/20 18:37:40;;;;;;;301.87;139.70;;;-0.70;99.90;;;;;;10439846;28;20536;-78
2022/11/20 18:48:00;;;;;;;276.80;137.27;;;-0.90;99.90;;;;;;10440085;28;20049;-78
2022/11/20 18:53:01;;;;;;;251.87;128.30;;;-1.00;99.90;;;;;;10441292;28;20037;-78
2022/11/20 18:58:01;;;;;;;251.50;129.33;;;-1.20;99.90;;;;;;10444675;28;20098;-79
2022/11/20 19:03:02;;;;;;;269.23;139.77;;;-1.30;99.90;;;;;;10438804;28;20032;-78
2022/11/20 19:08:02;;;;;;;276.47;140.07;;;-1.40;99.90;;;;;;10440566;28;20047;-77
2022/11/20 19:13:03;;;;;;;252.27;124.70;;;-1.50;99.90;;;;;;10450838;28;20029;-78
2022/11/20 19:18:04;;;;;;;243.23;114.50;;;-1.60;99.90;;;;;;10440521;28;20600;-79
2022/11/20 19:23:04;;;;;;;249.23;110.93;;;-1.70;99.90;;;;;;10441370;28;20032;-79
2022/11/20 19:28:05;;;;;;;289.57;120.57;;;-1.70;99.90;;;;;;10444387;28;20037;-78
2022/11/20 19:33:06;;;;;;;241.97;103.67;;;-1.80;99.90;;;;;;10441307;28;20029;-77
2022/11/20 19:38:07;;;;;;;248.23;108.47;;;-1.80;99.90;;;;;;10444485;28;20044;-78
2022/11/20 19:43:07;;;;;;;230.77;102.57;;;-1.80;99.90;;;;;;10439962;28;20033;-78
2022/11/20 19:48:08;;;;;;;238.60;103.57;;;-1.80;99.90;;;;;;10450387;28;20044;-78
2022/11/20 19:53:10;;;;;;;246.63;110.83;;;-1.90;99.90;;;;;;10465142;28;20388;-79
2022/11/20 19:58:10;;;;;;;326.97;132.50;;;-1.90;99.90;;;;;;10472653;28;20052;-78
2022/11/20 20:03:11;;;;;;;347.03;142.87;;;-1.90;99.90;;;;;;10455084;28;20135;-78
2022/11/20 20:08:12;;;;;;;297.50;134.50;;;-1.80;99.90;;;;;;10434543;28;20045;-78
2022/11/20 20:13:13;;;;;;;289.73;132.13;;;-1.70;99.90;;;;;;10467310;28;20392;-79
2022/11/20 20:18:14;;;;;;;293.97;127.60;;;-1.50;99.90;;;;;;10463536;28;20029;-80
2022/11/20 20:23:14;;;;;;;279.93;123.60;;;-1.50;99.90;;;;;;10447367;28;20028;-80
2022/11/20 20:28:15;;;;;;;285.47;130.50;;;-1.50;99.90;;;;;;10443039;28;20037;-78
2022/11/20 20:33:15;;;;;;;295.40;132.53;;;-1.40;99.90;;;;;;10445663;28;20044;-79
2022/11/20 20:38:16;;;;;;;349.93;157.23;;;-1.30;99.90;;;;;;10448429;28;20035;-79
2022/11/20 20:43:16;;;;;;;341.67;152.97;;;-1.30;99.90;;;;;;10448258;28;20789;-78
2022/11/20 20:48:19;;;;;;;242.20;107.03;;;-1.20;99.90;;;;;;10448222;28;20041;-79
2022/11/20 20:53:20;;;;;;;195.30;81.20;;;-1.00;99.90;;;;;;10447583;28;20086;-80
2022/11/20 20:58:21;;;;;;;174.37;74.57;;;-0.80;99.90;;;;;;10454107;28;20033;-80
2022/11/20 21:03:21;;;;;;;161.77;67.90;;;-0.60;99.90;;;;;;10447511;28;20412;-80
2022/11/20 21:08:24;;;;;;;150.67;65.87;;;-0.40;99.90;;;;;;10448721;28;20037;-78
2022/11/20 21:13:24;;;;;;;156.83;67.87;;;-0.30;99.90;;;;;;10440774;28;20029;-78
2022/11/20 21:18:26;;;;;;;168.43;75.77;;;-0.20;99.90;;;;;;10446205;28;20629;-78
2022/11/20 21:23:26;;;;;;;154.70;67.27;;;-0.10;99.90;;;;;;10447251;28;20031;-78
2022/11/20 21:28:29;;;;;;;163.53;68.97;;;0.00;99.90;;;;;;10444036;28;20048;-79
2022/11/20 21:33:39;;;;;;;155.50;71.80;;;0.10;99.90;;;;;;10444004;28;20079;-79
2022/11/20 21:38:40;;;;;;;271.33;120.90;;;0.10;99.90;;;;;;10450739;28;20429;-78
2022/11/20 21:43:44;;;;;;;371.40;170.13;;;0.10;99.90;;;;;;10445043;28;20045;-79
2022/11/20 21:48:45;;;;;;;496.57;227.27;;;0.10;99.90;;;;;;10452546;28;20045;-80
2022/11/20 21:53:47;;;;;;;484.83;236.40;;;0.10;99.90;;;;;;10443883;28;20033;-78
2022/11/20 21:58:49;;;;;;;438.03;202.63;;;0.20;99.90;;;;;;10442046;28;20029;-80
2022/11/20 22:03:55;;;;;;;370.13;161.93;;;0.20;99.90;;;;;;10442347;28;20114;-78
2022/11/20 22:08:56;;;;;;;290.73;128.57;;;0.20;99.90;;;;;;10442399;28;20025;-78
2022/11/20 22:19:17;;;;;;;178.13;79.97;;;0.30;99.90;;;;;;10439997;28;20033;-78
2022/11/20 22:24:20;;;;;;;191.20;91.57;;;0.40;99.90;;;;;;10443031;28;20359;-80
2022/11/20 22:29:20;;;;;;;190.80;83.90;;;0.40;99.90;;;;;;10441800;28;20040;-78
2022/11/20 22:34:21;;;;;;;178.07;78.77;;;0.50;99.90;;;;;;10440466;28;20699;-80
2022/11/20 22:39:21;;;;;;;160.07;72.20;;;0.50;99.90;;;;;;10442743;28;20098;-78
2022/11/20 22:44:22;;;;;;;145.83;68.63;;;0.60;99.90;;;;;;10423188;28;20490;-78
2022/11/20 22:49:22;;;;;;;144.53;65.27;;;0.60;99.90;;;;;;10445802;28;20508;-78
2022/11/20 22:54:23;;;;;;;147.40;66.77;;;0.70;99.90;;;;;;10440788;28;20025;-81
2022/11/20 22:59:23;;;;;;;142.53;65.07;;;0.70;99.90;;;;;;10428060;28;20440;-78
2022/11/20 23:04:24;;;;;;;139.27;61.57;;;0.80;99.90;;;;;;10440380;28;20028;-78
2022/11/20 23:09:24;;;;;;;149.43;67.10;;;0.70;99.90;;;;;;10440670;28;20036;-78
2022/11/20 23:14:25;;;;;;;188.33;86.20;;;0.80;99.90;;;;;;10441170;28;20797;-78
2022/11/20 23:19:25;;;;;;;196.20;93.97;;;0.80;99.90;;;;;;10441342;28;20033;-79
2022/11/20 23:24:26;;;;;;;196.47;89.00;;;0.80;99.90;;;;;;10440857;28;20052;-81
2022/11/20 23:29:26;;;;;;;198.33;92.63;;;0.80;99.90;;;;;;10450640;28;20041;-79
2022/11/20 23:34:27;;;;;;;166.50;77.43;;;0.80;99.90;;;;;;10438859;28;20021;-78
2022/11/20 23:39:27;;;;;;;150.50;73.63;;;0.80;99.90;;;;;;10440700;28;20025;-80
2022/11/20 23:44:28;;;;;;;154.47;74.07;;;0.80;99.90;;;;;;10442622;28;20053;-78
2022/11/20 23:49:28;;;;;;;157.13;71.90;;;0.90;99.90;;;;;;10441486;28;20478;-78
2022/11/20 23:54:29;;;;;;;160.17;73.63;;;0.90;99.90;;;;;;10441203;28;20040;-78
2022/11/20 23:59:30;;;;;;;162.87;77.67;;;0.90;99.90;;;;;;10442785;28;20403;-79
